Time;durP1;ratioP1;P1;durP2;ratioP2;P2;SDS_P1;SDS_P2;PMS_P1;PMS_P2;Temp;Humidity;BMP_temperature;BMP_pressure;BME280_temperature;BME280_humidity;BME280_pressure;Samples;Min_cycle;Max_cycle;Signal;HPM_P1;HPM_P2
2023/05/19 00:01:51;;;;;;;2.13;2.03;;;11.70;99.90;;;;;;5053499;28;20569;-58
2023/05/19 00:04:20;;;;;;;2.40;2.30;;;11.70;99.90;;;;;;5051675;28;20203;-58
2023/05/19 00:06:50;;;;;;;3.37;2.67;;;11.70;99.90;;;;;;5052798;28;20231;-58
2023/05/19 00:09:19;;;;;;;2.87;2.67;;;11.80;99.90;;;;;;5053839;28;20641;-58
2023/05/19 00:11:47;;;;;;;2.83;2.73;;;11.70;99.90;;;;;;5050315;28;20209;-58
2023/05/19 00:14:14;;;;;;;2.87;2.70;;;11.70;99.90;;;;;;5052383;28;20228;-58
2023/05/19 00:16:42;;;;;;;3.17;2.97;;;11.60;99.90;;;;;;5052919;28;20201;-58
2023/05/19 00:19:09;;;;;;;3.00;2.27;;;11.50;99.90;;;;;;5051135;28;20263;-58
2023/05/19 00:21:38;;;;;;;3.60;2.30;;;11.50;99.90;;;;;;5053422;28;20285;-58
2023/05/19 00:24:05;;;;;;;1.90;1.80;;;11.40;99.90;;;;;;5052735;28;20200;-58
2023/05/19 00:26:33;;;;;;;3.80;1.70;;;11.40;99.90;;;;;;5051486;28;20203;-58
2023/05/19 00:29:00;;;;;;;2.40;2.20;;;11.30;99.90;;;;;;5052233;28;20568;-58
2023/05/19 00:31:27;;;;;;;2.43;2.20;;;11.30;99.90;;;;;;5052668;28;20622;-58
2023/05/19 00:33:54;;;;;;;3.20;2.07;;;11.30;99.90;;;;;;5049521;28;20201;-58
2023/05/19 00:36:21;;;;;;;2.67;2.33;;;11.30;99.90;;;;;;5051956;28;20221;-58
2023/05/19 00:38:49;;;;;;;4.03;2.30;;;11.30;99.90;;;;;;5052917;28;20780;-58
2023/05/19 00:41:16;;;;;;;2.30;2.20;;;11.30;99.90;;;;;;5052675;28;20231;-58
2023/05/19 00:43:45;;;;;;;2.20;2.10;;;11.30;99.90;;;;;;5043729;28;20209;-58
2023/05/19 00:46:12;;;;;;;2.73;2.40;;;11.30;99.90;;;;;;5052534;28;20205;-58
2023/05/19 00:48:39;;;;;;;6.03;2.77;;;11.30;99.90;;;;;;5050822;28;20718;-58
2023/05/19 00:51:06;;;;;;;4.80;4.30;;;11.20;99.90;;;;;;5052127;28;20194;-59
2023/05/19 00:53:34;;;;;;;5.13;4.27;;;11.20;99.90;;;;;;5052696;28;20206;-58
2023/05/19 00:56:02;;;;;;;4.63;3.90;;;11.20;99.90;;;;;;5052847;28;20229;-58
2023/05/19 00:58:31;;;;;;;5.70;3.43;;;11.10;99.90;;;;;;5050876;28;20271;-57
2023/05/19 01:01:02;;;;;;;5.17;4.10;;;11.10;99.90;;;;;;5051685;28;20207;-58
2023/05/19 01:03:31;;;;;;;7.43;4.93;;;11.10;99.90;;;;;;5050822;28;20205;-58
2023/05/19 01:06:00;;;;;;;9.87;6.07;;;11.10;99.90;;;;;;5049514;28;20371;-58
2023/05/19 01:08:28;;;;;;;3.57;3.30;;;11.10;99.90;;;;;;5033214;28;20720;-58
2023/05/19 01:10:55;;;;;;;5.60;3.93;;;11.10;99.90;;;;;;5050773;28;20290;-58
2023/05/19 01:13:22;;;;;;;3.57;3.27;;;11.10;99.90;;;;;;5051454;28;20228;-58
2023/05/19 01:16:06;;;;;;;2.53;1.90;;;11.10;99.90;;;;;;5052190;28;20840;-59
2023/05/19 01:18:44;;;;;;;3.57;2.20;;;11.20;99.90;;;;;;5050992;28;20311;-58
2023/05/19 01:21:49;;;;;;;4.10;2.43;;;11.10;99.90;;;;;;5039217;28;20201;-58
2023/05/19 01:24:48;;;;;;;2.10;2.00;;;11.10;99.90;;;;;;5043635;28;20266;-58
2023/05/19 01:27:40;;;;;;;1.80;1.70;;;11.10;99.90;;;;;;5042165;28;20203;-58
2023/05/19 01:30:32;;;;;;;4.97;2.30;;;11.10;99.90;;;;;;5052400;28;20200;-58
2023/05/19 01:33:01;;;;;;;2.80;2.60;;;11.00;99.90;;;;;;5048677;28;20200;-58
2023/05/19 01:35:29;;;;;;;2.30;2.10;;;11.00;99.90;;;;;;5051975;28;20215;-58
2023/05/19 01:37:58;;;;;;;4.07;3.13;;;10.90;99.90;;;;;;5048628;28;20639;-58
2023/05/19 01:40:26;;;;;;;3.20;3.00;;;10.80;99.90;;;;;;5050605;28;20204;-58
2023/05/19 01:42:55;;;;;;;3.20;3.10;;;10.90;99.90;;;;;;5052014;28;20207;-58
2023/05/19 01:45:24;;;;;;;2.60;2.50;;;10.80;99.90;;;;;;5049759;28;20198;-58
2023/05/19 01:47:55;;;;;;;2.23;2.13;;;10.80;99.90;;;;;;5051963;28;20220;-58
2023/05/19 01:50:22;;;;;;;3.23;2.43;;;10.80;99.90;;;;;;5050970;28;20258;-58
2023/05/19 01:52:50;;;;;;;4.17;2.37;;;10.70;99.90;;;;;;5050527;28;20281;-58
2023/05/19 01:55:17;;;;;;;2.50;2.27;;;10.70;99.90;;;;;;5049739;28;20231;-58
2023/05/19 01:57:59;;;;;;;2.93;2.70;;;10.80;99.90;;;;;;5051486;28;20572;-58
2023/05/19 02:00:37;;;;;;;3.07;2.77;;;10.70;99.90;;;;;;5051696;28;20262;-58
2023/05/19 02:03:14;;;;;;;3.60;2.17;;;10.70;99.90;;;;;;5047324;28;20204;-58
2023/05/19 02:05:49;;;;;;;2.20;2.10;;;10.60;99.90;;;;;;5050460;28;20217;-58
2023/05/19 02:08:24;;;;;;;2.40;2.20;;;10.60;99.90;;;;;;5050377;28;20293;-58
2023/05/19 02:10:55;;;;;;;3.87;2.47;;;10.50;99.90;;;;;;5048477;28;20199;-58
2023/05/19 02:13:26;;;;;;;2.67;1.90;;;10.50;99.90;;;;;;5050610;28;20200;-59
2023/05/19 02:15:59;;;;;;;3.93;2.70;;;10.50;99.90;;;;;;5050189;28;20265;-58
2023/05/19 02:18:28;;;;;;;1.93;1.83;;;10.50;99.90;;;;;;5048080;28;20269;-58
2023/05/19 02:20:55;;;;;;;2.30;1.90;;;10.40;99.90;;;;;;5051212;28;20213;-58
2023/05/19 02:23:22;;;;;;;3.33;2.17;;;10.40;99.90;;;;;;5051365;28;20273;-58
2023/05/19 02:25:49;;;;;;;2.17;2.07;;;10.40;99.90;;;;;;5049334;28;20200;-58
2023/05/19 02:28:17;;;;;;;2.20;2.10;;;10.40;99.90;;;;;;5050368;28;20290;-59
2023/05/19 02:30:44;;;;;;;2.07;1.97;;;10.40;99.90;;;;;;5050005;28;20676;-58
2023/05/19 02:33:12;;;;;;;2.43;1.97;;;10.40;99.90;;;;;;5049789;28;20196;-58
2023/05/19 02:35:39;;;;;;;2.60;2.43;;;10.40;99.90;;;;;;5050859;28;20675;-58
2023/05/19 02:38:06;;;;;;;1.90;1.80;;;10.50;99.90;;;;;;5051207;28;20227;-57
2023/05/19 02:40:33;;;;;;;3.43;1.70;;;10.60;99.90;;;;;;5050869;28;20206;-58
2023/05/19 02:43:00;;;;;;;1.73;1.70;;;10.50;99.90;;;;;;5047927;28;20735;-58
2023/05/19 02:45:28;;;;;;;3.07;2.10;;;10.50;99.90;;;;;;5048964;28;20204;-58
2023/05/19 02:47:55;;;;;;;2.20;2.10;;;10.50;99.90;;;;;;5050821;28;20239;-58
2023/05/19 02:50:23;;;;;;;1.87;1.80;;;10.50;99.90;;;;;;5053269;28;20201;-58
2023/05/19 02:52:51;;;;;;;2.03;1.90;;;10.50;99.90;;;;;;5054807;28;20603;-58
2023/05/19 02:55:18;;;;;;;1.90;1.73;;;10.30;99.90;;;;;;5053821;28;20308;-58
2023/05/19 02:57:45;;;;;;;1.50;1.50;;;10.30;99.90;;;;;;5052858;28;20736;-59
2023/05/19 03:00:13;;;;;;;1.97;1.67;;;10.30;99.90;;;;;;5053345;28;20273;-58
2023/05/19 03:02:42;;;;;;;2.00;1.90;;;10.30;99.90;;;;;;5052655;28;20203;-58
2023/05/19 03:05:10;;;;;;;2.00;1.87;;;10.30;99.90;;;;;;5034932;28;20224;-57
2023/05/19 03:07:38;;;;;;;1.80;1.70;;;10.20;99.90;;;;;;5049690;28;20231;-57
2023/05/19 03:10:07;;;;;;;1.97;1.80;;;10.20;99.90;;;;;;5054553;28;20262;-57
2023/05/19 03:12:34;;;;;;;1.87;1.77;;;10.20;99.90;;;;;;5054367;28;20203;-58
2023/05/19 03:15:01;;;;;;;1.70;1.60;;;10.20;99.90;;;;;;5051498;28;20595;-58
2023/05/19 03:17:32;;;;;;;2.17;2.07;;;10.30;99.90;;;;;;5053470;28;20229;-59
2023/05/19 03:20:00;;;;;;;1.80;1.80;;;10.20;99.90;;;;;;5053598;28;20286;-58
2023/05/19 03:22:27;;;;;;;1.90;1.50;;;10.30;99.90;;;;;;5054203;28;20752;-58
2023/05/19 03:24:57;;;;;;;2.10;1.90;;;10.20;99.90;;;;;;5054445;28;20831;-58
2023/05/19 03:27:24;;;;;;;6.80;2.13;;;10.10;99.90;;;;;;5054381;28;20706;-58
2023/05/19 03:29:52;;;;;;;2.67;1.97;;;10.10;99.90;;;;;;5050632;28;20201;-58
2023/05/19 03:32:19;;;;;;;1.50;1.40;;;10.10;99.90;;;;;;5052845;28;20295;-58
2023/05/19 03:34:46;;;;;;;3.03;1.30;;;10.10;99.90;;;;;;5054145;28;20257;-58
2023/05/19 03:37:13;;;;;;;4.80;1.83;;;10.10;99.90;;;;;;5054178;28;20221;-58
2023/05/19 03:39:40;;;;;;;2.00;1.90;;;10.10;99.90;;;;;;5053764;28;20759;-58
2023/05/19 03:42:08;;;;;;;2.87;1.83;;;10.10;99.90;;;;;;5053101;28;20198;-58
2023/05/19 03:44:35;;;;;;;1.60;1.47;;;10.20;99.90;;;;;;5051567;28;20295;-57
2023/05/19 03:47:04;;;;;;;1.10;1.10;;;10.10;99.90;;;;;;5052635;28;20266;-58
2023/05/19 03:49:31;;;;;;;1.53;1.43;;;10.10;99.90;;;;;;5052751;28;20270;-58
2023/05/19 03:52:02;;;;;;;2.60;1.77;;;10.00;99.90;;;;;;5054120;28;20281;-58
2023/05/19 03:54:29;;;;;;;1.40;1.40;;;10.00;99.90;;;;;;5053966;28;20287;-59
2023/05/19 03:56:56;;;;;;;1.77;1.33;;;10.00;99.90;;;;;;5051044;28;20219;-58
2023/05/19 03:59:24;;;;;;;2.10;2.00;;;10.10;99.90;;;;;;5045574;28;20224;-58
2023/05/19 04:01:51;;;;;;;2.40;1.53;;;10.10;99.90;;;;;;5049988;28;20205;-58
2023/05/19 04:04:18;;;;;;;3.37;1.50;;;10.20;99.90;;;;;;5053246;28;20275;-59
2023/05/19 04:06:45;;;;;;;1.87;1.77;;;10.30;99.90;;;;;;5053142;28;20216;-58
2023/05/19 04:09:14;;;;;;;1.13;1.13;;;10.40;99.90;;;;;;5052728;28;20223;-58
2023/05/19 04:11:41;;;;;;;2.97;1.97;;;10.50;99.90;;;;;;5053574;28;20202;-58
2023/05/19 04:14:08;;;;;;;1.93;1.83;;;10.60;99.90;;;;;;5035442;28;20215;-59
2023/05/19 04:16:36;;;;;;;1.30;1.30;;;10.50;99.90;;;;;;5052909;28;20221;-58
2023/05/19 04:19:03;;;;;;;2.90;1.73;;;10.50;99.90;;;;;;5052200;28;20591;-58
2023/05/19 04:21:30;;;;;;;2.33;2.23;;;10.50;99.90;;;;;;5052724;28;20198;-58
2023/05/19 04:23:58;;;;;;;1.70;1.60;;;10.50;99.90;;;;;;5050624;28;20197;-58
2023/05/19 04:26:29;;;;;;;2.00;1.80;;;10.50;99.90;;;;;;5053346;28;20248;-58
2023/05/19 04:28:56;;;;;;;3.00;1.53;;;10.60;99.90;;;;;;5051034;28;20231;-58
2023/05/19 04:31:23;;;;;;;1.40;1.40;;;10.60;99.90;;;;;;5053103;28;20269;-58
2023/05/19 04:33:52;;;;;;;1.77;1.67;;;10.60;99.90;;;;;;5051933;28;20198;-57
2023/05/19 04:36:20;;;;;;;1.60;1.57;;;10.70;99.90;;;;;;5051927;28;20662;-57
2023/05/19 04:38:47;;;;;;;2.80;2.60;;;10.80;99.90;;;;;;5050137;28;20278;-58
2023/05/19 04:41:15;;;;;;;1.97;1.83;;;10.80;99.90;;;;;;5052508;28;20197;-58
2023/05/19 04:43:43;;;;;;;3.03;2.00;;;10.90;99.90;;;;;;5051873;28;20692;-58
2023/05/19 04:46:11;;;;;;;1.60;1.50;;;10.90;99.90;;;;;;5044934;28;20196;-57
2023/05/19 04:48:38;;;;;;;2.00;1.53;;;11.00;99.90;;;;;;5052846;28;20224;-58
2023/05/19 04:51:07;;;;;;;4.40;1.67;;;11.00;99.90;;;;;;5051297;28;20204;-58
2023/05/19 04:53:34;;;;;;;2.50;1.97;;;11.10;99.90;;;;;;5051736;28;20208;-58
2023/05/19 04:56:02;;;;;;;2.67;2.00;;;11.20;99.90;;;;;;5053300;28;20220;-58
2023/05/19 04:58:29;;;;;;;2.00;1.90;;;11.20;99.90;;;;;;5067214;28;20276;-58
2023/05/19 05:00:56;;;;;;;2.03;1.93;;;11.30;99.90;;;;;;5052342;28;20659;-58
2023/05/19 05:03:23;;;;;;;2.70;1.57;;;11.30;99.90;;;;;;5052638;28;20280;-58
2023/05/19 05:05:51;;;;;;;2.07;1.83;;;11.30;99.90;;;;;;5051429;28;20197;-58
2023/05/19 05:08:21;;;;;;;2.90;2.10;;;11.30;99.90;;;;;;5048934;28;20226;-58
2023/05/19 05:10:50;;;;;;;2.27;2.17;;;11.40;99.90;;;;;;5058518;28;20230;-58
2023/05/19 05:13:17;;;;;;;1.97;1.87;;;11.40;99.90;;;;;;5051909;28;20299;-58
2023/05/19 05:15:45;;;;;;;2.60;1.70;;;11.50;99.90;;;;;;5054726;28;20204;-57
2023/05/19 05:18:13;;;;;;;3.83;2.13;;;11.50;99.90;;;;;;5048768;28;20778;-58
2023/05/19 05:20:42;;;;;;;4.73;2.10;;;11.60;99.90;;;;;;5049799;28;20198;-58
2023/05/19 05:23:13;;;;;;;3.90;2.10;;;11.70;99.90;;;;;;5038936;28;20569;-58
2023/05/19 05:25:42;;;;;;;2.67;2.57;;;11.70;99.90;;;;;;5039771;28;20690;-57
2023/05/19 05:28:10;;;;;;;2.70;2.23;;;11.60;99.90;;;;;;5031266;28;20224;-58
2023/05/19 05:30:37;;;;;;;3.53;1.90;;;11.80;99.90;;;;;;5030922;28;20213;-58
2023/05/19 05:33:05;;;;;;;3.03;2.47;;;11.90;99.90;;;;;;5031031;28;20210;-58
2023/05/19 05:35:31;;;;;;;2.37;2.17;;;11.90;99.90;;;;;;5043320;28;20216;-58
2023/05/19 05:38:00;;;;;;;2.73;1.77;;;12.00;99.90;;;;;;5048791;28;20214;-58
2023/05/19 05:40:27;;;;;;;1.97;1.87;;;12.20;99.90;;;;;;5046420;28;20207;-58
2023/05/19 05:42:57;;;;;;;2.00;1.90;;;12.30;99.90;;;;;;5051780;28;20200;-58
2023/05/19 05:45:25;;;;;;;1.63;1.40;;;12.40;99.90;;;;;;5052135;28;20206;-58
2023/05/19 05:47:52;;;;;;;2.40;2.20;;;12.40;99.90;;;;;;5051878;28;20224;-58
2023/05/19 05:50:20;;;;;;;2.53;1.77;;;12.40;99.90;;;;;;5051940;28;20246;-58
2023/05/19 05:52:48;;;;;;;1.93;1.80;;;12.50;99.90;;;;;;5051412;28;20212;-58
2023/05/19 05:55:17;;;;;;;2.87;2.40;;;12.60;99.90;;;;;;5050041;28;20196;-58
2023/05/19 05:57:44;;;;;;;3.00;2.67;;;12.70;99.90;;;;;;5051749;28;20273;-57
2023/05/19 06:00:15;;;;;;;5.77;3.00;;;12.90;99.90;;;;;;5051781;28;20211;-58
2023/05/19 06:02:43;;;;;;;4.87;2.30;;;13.00;99.90;;;;;;5051540;28;20319;-58
2023/05/19 06:05:12;;;;;;;3.63;2.30;;;12.90;99.90;;;;;;5051645;28;20297;-57
2023/05/19 06:07:39;;;;;;;2.53;1.87;;;12.80;99.90;;;;;;5051777;28;20303;-58
2023/05/19 06:10:08;;;;;;;3.87;2.53;;;13.00;99.90;;;;;;5050319;28;20197;-58
2023/05/19 06:12:38;;;;;;;2.90;2.23;;;12.90;99.90;;;;;;5042837;28;20197;-58
2023/05/19 06:15:06;;;;;;;2.80;2.13;;;12.80;99.90;;;;;;5048136;28;20574;-58
2023/05/19 06:17:35;;;;;;;3.23;2.50;;;12.80;99.90;;;;;;5045467;28;20645;-58
2023/05/19 06:20:02;;;;;;;2.20;2.10;;;12.90;99.90;;;;;;5051360;28;20615;-57
2023/05/19 06:22:29;;;;;;;1.70;1.70;;;13.10;99.90;;;;;;5051461;28;20205;-58
2023/05/19 06:24:56;;;;;;;2.47;2.20;;;13.10;99.90;;;;;;5051036;28;20211;-58
2023/05/19 06:27:23;;;;;;;11.93;2.20;;;13.10;99.90;;;;;;5049860;28;20270;-58
2023/05/19 06:29:50;;;;;;;2.17;2.07;;;13.10;99.90;;;;;;5051473;28;20266;-58
2023/05/19 06:32:17;;;;;;;2.53;1.87;;;13.30;99.90;;;;;;5051245;28;20260;-58
2023/05/19 06:34:52;;;;;;;2.70;2.47;;;13.40;99.90;;;;;;5051444;28;20194;-58
2023/05/19 06:37:21;;;;;;;1.93;1.83;;;13.40;99.90;;;;;;5043799;28;20231;-58
2023/05/19 06:39:50;;;;;;;3.03;2.00;;;13.80;99.90;;;;;;5051447;28;20204;-58
2023/05/19 06:42:20;;;;;;;1.93;1.87;;;13.80;99.90;;;;;;5049039;28;20200;-57
2023/05/19 06:44:48;;;;;;;2.47;2.27;;;13.90;99.90;;;;;;5051417;28;20196;-58
2023/05/19 06:47:15;;;;;;;2.10;2.00;;;13.90;99.90;;;;;;5050995;28;20207;-57
2023/05/19 06:49:42;;;;;;;3.27;2.53;;;14.00;99.90;;;;;;5051346;28;20202;-58
2023/05/19 06:52:11;;;;;;;2.80;2.60;;;14.10;99.90;;;;;;5051375;28;20212;-58
2023/05/19 06:54:38;;;;;;;2.63;2.43;;;14.10;99.90;;;;;;5051026;28;20453;-59
2023/05/19 06:57:06;;;;;;;4.50;2.67;;;14.30;99.90;;;;;;5051260;28;20279;-58
2023/05/19 06:59:33;;;;;;;2.30;2.20;;;14.70;99.90;;;;;;5048387;28;20617;-58
2023/05/19 07:02:02;;;;;;;2.30;2.10;;;15.00;99.90;;;;;;5050896;28;20665;-58
2023/05/19 07:04:29;;;;;;;2.50;2.30;;;15.10;99.90;;;;;;5050767;28;20212;-58
2023/05/19 07:06:59;;;;;;;2.67;2.47;;;15.10;99.90;;;;;;5050981;28;20216;-58
2023/05/19 07:09:27;;;;;;;2.67;2.47;;;15.10;99.90;;;;;;5051079;28;20213;-57
2023/05/19 07:11:55;;;;;;;2.43;2.23;;;15.20;99.90;;;;;;5051251;28;20209;-58
2023/05/19 07:14:22;;;;;;;2.30;2.20;;;14.80;99.90;;;;;;5048901;28;20288;-57
2023/05/19 07:16:49;;;;;;;4.50;3.07;;;15.10;99.90;;;;;;5049559;28;20226;-57
2023/05/19 07:19:18;;;;;;;1.93;1.83;;;15.60;99.90;;;;;;5050819;28;20276;-58
2023/05/19 07:21:45;;;;;;;4.80;2.87;;;16.10;99.90;;;;;;5051264;28;20257;-58
2023/05/19 07:24:12;;;;;;;2.03;1.93;;;16.60;99.90;;;;;;5050845;28;20740;-58
2023/05/19 07:26:41;;;;;;;2.30;2.20;;;17.50;99.90;;;;;;5051201;28;20584;-58
2023/05/19 07:29:08;;;;;;;2.93;2.73;;;17.70;99.90;;;;;;5050846;28;20228;-57
2023/05/19 07:31:35;;;;;;;3.17;2.97;;;17.50;99.90;;;;;;5049976;28;20667;-58
2023/05/19 07:34:03;;;;;;;3.23;2.93;;;17.30;99.90;;;;;;5047040;28;20266;-58
2023/05/19 07:36:30;;;;;;;3.17;2.97;;;17.30;99.90;;;;;;5052976;28;20198;-58
2023/05/19 07:38:57;;;;;;;2.40;2.30;;;17.60;99.90;;;;;;5050632;28;20308;-58
2023/05/19 07:41:25;;;;;;;3.43;2.60;;;18.10;99.90;;;;;;5054461;28;20194;-58
2023/05/19 07:43:53;;;;;;;3.00;2.87;;;18.30;99.90;;;;;;5054124;28;20244;-58
2023/05/19 07:46:20;;;;;;;3.73;3.43;;;18.70;99.90;;;;;;5054215;28;20213;-58
2023/05/19 07:48:47;;;;;;;2.53;2.43;;;18.20;99.90;;;;;;5054454;28;20641;-59
2023/05/19 07:51:14;;;;;;;3.00;2.90;;;17.50;99.90;;;;;;5053402;28;20664;-58
2023/05/19 07:53:41;;;;;;;3.57;3.47;;;17.00;99.90;;;;;;5053814;28;20659;-58
2023/05/19 07:56:08;;;;;;;2.67;2.57;;;16.70;99.90;;;;;;5035917;28;20615;-58
2023/05/19 07:58:35;;;;;;;3.40;3.10;;;16.60;99.90;;;;;;5034186;28;20245;-59
2023/05/19 08:01:04;;;;;;;3.10;2.80;;;17.30;99.90;;;;;;5034173;28;20203;-58
2023/05/19 08:03:32;;;;;;;4.67;2.70;;;17.90;99.90;;;;;;5034070;28;20207;-58
2023/05/19 08:05:59;;;;;;;3.83;3.00;;;18.50;99.90;;;;;;5034149;28;20207;-58
2023/05/19 08:08:26;;;;;;;2.60;2.43;;;19.50;99.90;;;;;;5043217;28;20238;-58
2023/05/19 08:10:53;;;;;;;3.00;2.80;;;20.40;99.90;;;;;;5051260;28;20640;-57
2023/05/19 08:13:20;;;;;;;3.87;2.73;;;20.20;99.90;;;;;;5053496;28;20275;-58
2023/05/19 08:15:47;;;;;;;3.00;2.67;;;19.10;99.90;;;;;;5053950;28;20206;-58
2023/05/19 08:18:15;;;;;;;2.43;2.23;;;18.80;99.90;;;;;;5053519;28;20225;-58
2023/05/19 08:20:42;;;;;;;3.40;3.13;;;18.30;99.90;;;;;;5053676;28;20202;-58
2023/05/19 08:23:09;;;;;;;2.73;2.63;;;18.10;99.90;;;;;;5053424;28;20670;-58
2023/05/19 08:25:36;;;;;;;3.17;2.97;;;18.00;99.90;;;;;;5048432;28;20202;-58
2023/05/19 08:28:03;;;;;;;3.60;3.40;;;18.00;99.90;;;;;;5049345;28;20214;-58
2023/05/19 08:30:30;;;;;;;3.77;3.57;;;18.00;99.90;;;;;;5048314;28;20617;-58
2023/05/19 08:32:57;;;;;;;3.23;2.90;;;17.90;99.90;;;;;;5049088;28;20206;-58
2023/05/19 08:35:26;;;;;;;3.33;3.10;;;17.70;99.90;;;;;;5033220;28;20252;-58
2023/05/19 08:37:52;;;;;;;3.57;3.27;;;17.50;99.90;;;;;;5044160;28;20389;-58
2023/05/19 08:40:20;;;;;;;3.93;3.73;;;17.50;99.90;;;;;;5048977;28;20238;-58
2023/05/19 08:42:48;;;;;;;3.17;3.00;;;17.50;99.90;;;;;;5051301;28;20206;-58
2023/05/19 08:45:15;;;;;;;3.77;3.57;;;17.70;99.90;;;;;;5044745;28;20198;-58
2023/05/19 08:47:45;;;;;;;3.03;2.77;;;18.00;99.90;;;;;;5041411;28;20264;-59
2023/05/19 08:50:16;;;;;;;3.33;3.10;;;18.00;99.90;;;;;;5053634;28;20225;-58
2023/05/19 08:52:51;;;;;;;3.43;3.13;;;17.60;99.90;;;;;;5053183;28;20263;-58
2023/05/19 08:55:27;;;;;;;3.77;3.47;;;17.50;99.90;;;;;;5052195;28;20263;-58
2023/05/19 08:57:54;;;;;;;3.40;3.20;;;17.40;99.90;;;;;;5043278;28;20217;-58
2023/05/19 09:00:21;;;;;;;3.47;3.27;;;17.10;99.90;;;;;;5051626;28;20198;-58
2023/05/19 09:02:50;;;;;;;3.80;3.50;;;16.90;99.90;;;;;;5053034;28;20615;-58
2023/05/19 09:05:18;;;;;;;3.53;3.33;;;16.80;99.90;;;;;;5052914;28;20241;-58
2023/05/19 09:07:47;;;;;;;3.30;3.10;;;17.20;99.90;;;;;;5052825;28;20222;-59
2023/05/19 09:10:15;;;;;;;4.77;4.47;;;17.60;99.90;;;;;;5052813;28;20208;-59
2023/05/19 09:12:44;;;;;;;3.83;3.57;;;18.10;99.90;;;;;;5050622;28;20205;-59
2023/05/19 09:15:11;;;;;;;3.33;3.13;;;18.10;99.90;;;;;;5044949;28;20232;-59
2023/05/19 09:17:39;;;;;;;3.33;3.10;;;18.40;99.90;;;;;;5043800;28;20602;-59
2023/05/19 09:20:10;;;;;;;4.20;3.80;;;18.20;99.90;;;;;;5050104;28;20216;-59
2023/05/19 09:22:41;;;;;;;4.47;2.90;;;18.70;99.90;;;;;;5052102;28;20194;-59
2023/05/19 09:25:20;;;;;;;4.23;3.23;;;19.30;99.90;;;;;;5052222;28;20235;-58
2023/05/19 09:27:48;;;;;;;3.27;3.17;;;19.70;99.90;;;;;;5049399;28;20718;-58
2023/05/19 09:30:16;;;;;;;3.70;3.50;;;20.00;99.90;;;;;;5050205;28;20198;-58
2023/05/19 09:32:43;;;;;;;3.53;3.10;;;20.70;99.90;;;;;;5049662;28;20205;-59
2023/05/19 09:35:12;;;;;;;3.60;3.07;;;21.10;99.90;;;;;;5055893;28;20251;-58
2023/05/19 09:37:43;;;;;;;3.20;2.83;;;20.80;99.90;;;;;;5052025;28;20248;-58
2023/05/19 09:40:10;;;;;;;3.37;3.27;;;20.70;99.90;;;;;;5068031;28;20197;-58
2023/05/19 09:42:39;;;;;;;4.10;3.90;;;20.30;99.90;;;;;;5071699;28;20666;-58
2023/05/19 09:45:08;;;;;;;4.80;4.43;;;19.70;99.90;;;;;;5051326;28;20630;-59
2023/05/19 09:47:36;;;;;;;3.30;3.20;;;19.00;99.90;;;;;;5051762;28;20214;-59
2023/05/19 09:50:07;;;;;;;4.20;3.90;;;18.90;99.90;;;;;;5051789;28;20206;-58
2023/05/19 09:52:36;;;;;;;4.53;4.20;;;18.90;99.90;;;;;;5049775;28;20205;-58
2023/05/19 09:55:05;;;;;;;3.87;3.67;;;18.80;99.90;;;;;;5045369;28;20927;-59
2023/05/19 09:57:37;;;;;;;4.40;4.13;;;19.20;99.90;;;;;;5044044;28;20703;-57
2023/05/19 10:00:13;;;;;;;3.80;3.50;;;19.40;99.90;;;;;;5051209;28;20281;-58
2023/05/19 10:02:43;;;;;;;4.93;4.30;;;19.10;99.90;;;;;;5051316;28;20618;-58
2023/05/19 10:05:12;;;;;;;6.13;4.43;;;19.00;99.90;;;;;;5051978;28;20572;-57
2023/05/19 10:07:40;;;;;;;5.27;4.87;;;18.70;99.90;;;;;;5051674;28;20221;-58
2023/05/19 10:10:11;;;;;;;6.83;5.77;;;18.70;99.90;;;;;;5051826;28;20201;-59
2023/05/19 10:12:39;;;;;;;6.83;4.70;;;18.80;99.90;;;;;;5050073;28;20198;-58
2023/05/19 10:15:10;;;;;;;4.90;4.50;;;18.50;99.90;;;;;;5051362;28;20665;-58
2023/05/19 10:17:38;;;;;;;3.73;3.37;;;18.40;99.90;;;;;;5051742;28;20235;-58
2023/05/19 10:20:09;;;;;;;5.33;4.63;;;18.30;99.90;;;;;;5051734;28;20212;-59
2023/05/19 10:22:36;;;;;;;6.60;4.30;;;17.80;99.90;;;;;;5051662;28;20284;-57
2023/05/19 10:25:03;;;;;;;5.33;4.73;;;17.60;99.90;;;;;;5051530;28;20206;-57
2023/05/19 10:27:32;;;;;;;5.30;4.40;;;17.30;99.90;;;;;;5051508;28;20218;-58
2023/05/19 10:30:04;;;;;;;5.33;4.93;;;17.40;99.90;;;;;;5050460;28;20259;-58
2023/05/19 10:32:33;;;;;;;4.57;4.17;;;17.30;99.90;;;;;;5051458;28;20218;-58
2023/05/19 10:35:20;;;;;;;4.67;4.27;;;17.40;99.90;;;;;;5051705;28;20197;-58
2023/05/19 10:37:57;;;;;;;5.23;4.70;;;17.10;99.90;;;;;;5051509;28;20263;-57
2023/05/19 10:40:28;;;;;;;4.70;4.30;;;17.10;99.90;;;;;;5051611;28;20291;-57
2023/05/19 10:43:12;;;;;;;5.03;4.73;;;17.10;99.90;;;;;;5051277;28;20259;-57
2023/05/19 10:45:46;;;;;;;4.90;4.50;;;17.10;99.90;;;;;;5049461;28;20279;-57
2023/05/19 10:48:16;;;;;;;4.63;4.27;;;17.10;99.90;;;;;;5043700;28;20209;-58
2023/05/19 10:50:45;;;;;;;4.97;4.47;;;17.20;99.90;;;;;;5051380;28;20206;-58
2023/05/19 10:53:17;;;;;;;4.67;4.27;;;17.20;99.90;;;;;;5051310;28;20201;-57
2023/05/19 10:55:51;;;;;;;4.07;3.87;;;17.40;99.90;;;;;;5051606;28;20217;-57
2023/05/19 10:58:36;;;;;;;5.80;5.07;;;17.60;99.90;;;;;;5051203;28;20236;-58
2023/05/19 11:01:07;;;;;;;5.63;4.20;;;18.00;99.90;;;;;;5050400;28;20594;-58
2023/05/19 11:03:46;;;;;;;4.50;3.97;;;17.90;99.90;;;;;;5046060;28;20642;-59
2023/05/19 11:06:26;;;;;;;4.30;4.03;;;18.20;99.90;;;;;;5031425;28;20220;-58
2023/05/19 11:08:54;;;;;;;6.57;4.80;;;18.10;99.90;;;;;;5031106;28;20249;-58
2023/05/19 11:11:22;;;;;;;5.70;5.20;;;18.10;99.90;;;;;;5033480;28;20638;-58
2023/05/19 11:13:51;;;;;;;4.93;4.60;;;18.00;99.90;;;;;;5034967;28;20205;-57
2023/05/19 11:16:20;;;;;;;5.13;3.63;;;18.20;99.90;;;;;;5053299;28;20304;-58
2023/05/19 11:18:54;;;;;;;4.93;4.53;;;18.10;99.90;;;;;;5045750;28;20230;-58
2023/05/19 11:21:21;;;;;;;4.97;4.67;;;18.00;99.90;;;;;;5054831;28;20205;-58
2023/05/19 11:23:48;;;;;;;5.37;4.63;;;17.70;99.90;;;;;;5054543;28;20263;-58
2023/05/19 11:26:15;;;;;;;5.10;4.70;;;17.60;99.90;;;;;;5054715;28;20224;-58
2023/05/19 11:28:43;;;;;;;4.53;4.13;;;17.50;99.90;;;;;;5054695;28;20218;-58
2023/05/19 11:31:11;;;;;;;5.17;4.67;;;17.60;99.90;;;;;;5053877;28;20256;-57
2023/05/19 11:33:39;;;;;;;4.20;3.80;;;17.50;99.90;;;;;;5050234;28;20280;-57
2023/05/19 11:36:08;;;;;;;4.43;4.13;;;17.60;99.90;;;;;;5054403;28;20259;-58
2023/05/19 11:38:35;;;;;;;4.87;4.40;;;17.70;99.90;;;;;;5054354;28;20228;-59
2023/05/19 11:41:04;;;;;;;4.20;3.90;;;17.80;99.90;;;;;;5054713;28;20202;-58
2023/05/19 11:43:31;;;;;;;3.83;3.63;;;17.90;99.90;;;;;;5054261;28;20574;-58
2023/05/19 11:45:58;;;;;;;5.37;4.77;;;18.20;99.90;;;;;;5054558;28;20251;-59
2023/05/19 11:48:26;;;;;;;6.20;5.23;;;18.40;99.90;;;;;;5048807;28;20698;-58
2023/05/19 11:50:53;;;;;;;4.97;4.20;;;18.70;99.90;;;;;;5051947;28;20256;-58
2023/05/19 11:53:21;;;;;;;4.83;4.17;;;18.90;99.90;;;;;;5053776;28;20198;-58
2023/05/19 11:55:48;;;;;;;3.90;3.70;;;19.10;99.90;;;;;;5053843;28;20629;-58
2023/05/19 11:58:16;;;;;;;4.63;4.37;;;19.40;99.90;;;;;;5053734;28;20233;-58
2023/05/19 12:00:44;;;;;;;5.13;4.63;;;19.20;99.90;;;;;;5054193;28;20198;-58
2023/05/19 12:03:12;;;;;;;4.77;4.40;;;19.00;99.90;;;;;;5051368;28;20206;-58
2023/05/19 12:05:43;;;;;;;4.40;3.97;;;18.80;99.90;;;;;;5045622;28;20208;-59
2023/05/19 12:08:10;;;;;;;4.77;4.47;;;18.70;99.90;;;;;;5054006;28;20287;-58
2023/05/19 12:10:39;;;;;;;4.60;4.30;;;18.60;99.90;;;;;;5053976;28;20197;-58
2023/05/19 12:13:08;;;;;;;5.43;4.87;;;18.70;99.90;;;;;;5053577;28;20202;-59
2023/05/19 12:15:35;;;;;;;4.97;4.53;;;18.80;99.90;;;;;;5053827;28;20673;-58
2023/05/19 12:18:02;;;;;;;5.70;4.77;;;18.50;99.90;;;;;;5053633;28;20233;-58
2023/05/19 12:20:31;;;;;;;5.47;5.07;;;18.20;99.90;;;;;;5052121;28;20292;-59
2023/05/19 12:23:00;;;;;;;4.70;4.33;;;18.00;99.90;;;;;;5050810;28;20202;-59
2023/05/19 12:25:28;;;;;;;4.73;4.20;;;18.20;99.90;;;;;;5053630;28;20630;-58
2023/05/19 12:28:01;;;;;;;6.07;5.00;;;18.30;99.90;;;;;;5053496;28;20247;-58
2023/05/19 12:30:29;;;;;;;4.70;4.30;;;18.50;99.90;;;;;;5053585;28;20201;-59
2023/05/19 12:32:57;;;;;;;3.77;3.57;;;18.60;99.90;;;;;;5053552;28;20202;-58
2023/05/19 12:35:27;;;;;;;4.40;4.10;;;18.50;99.90;;;;;;5046669;28;20203;-58
2023/05/19 12:37:55;;;;;;;4.97;4.63;;;18.30;99.90;;;;;;5051630;28;20214;-58
2023/05/19 12:40:22;;;;;;;4.43;4.10;;;18.20;99.90;;;;;;5053365;28;20615;-58
2023/05/19 12:42:50;;;;;;;6.73;4.73;;;17.90;99.90;;;;;;5053281;28;20198;-58
2023/05/19 12:45:21;;;;;;;5.57;5.03;;;18.00;99.90;;;;;;5053486;28;20583;-58
2023/05/19 12:47:49;;;;;;;4.90;4.33;;;17.90;99.90;;;;;;5057644;28;20214;-58
2023/05/19 12:50:16;;;;;;;7.40;5.23;;;18.00;99.90;;;;;;5058447;28;20202;-59
2023/05/19 12:52:44;;;;;;;5.40;4.97;;;18.20;99.90;;;;;;5053777;28;20265;-59
2023/05/19 12:55:12;;;;;;;3.77;3.47;;;18.00;99.90;;;;;;5062809;28;20210;-59
2023/05/19 12:57:41;;;;;;;4.23;3.93;;;18.10;99.90;;;;;;5061672;28;20234;-59